Home > Products > Valid Products > TAF

000
FTUS42 TJSJ 301731
TAFIST
TAF
TIST 301731Z 3018/3118 15006KT P6SM BKN010 BKN021
     FM302300 09008KT P6SM VCSH SCT025 BKN070
     FM311330 13012KT P6SM VCSH SCT025 BKN050=



000
FTUS42 TJSJ 301731
TAFNCM
TAF
TNCM 301731Z 3018/3118 13007KT P6SM VCSH FEW024
     FM302300 11008KT P6SM SCT025 BKN070
     FM311330 13010KT P6SM VCTS SCT018CB SCT035=



000
FTUS42 TJSJ 301731
TAFISX
TAF
TISX 301731Z 3018/3118 13009KT P6SM VCSH SCT022
     FM302300 09006KT P6SM VCSH SCT025 BKN070
     FM311400 12010KT P6SM VCTS SCT022CB BKN040=



000
FTUS42 TJSJ 301731
TAFJPS
TAF
TJPS 301731Z 3018/3118 17010KT P6SM FEW030 BKN060
     FM302330 07005KT P6SM VCSH SCT030 BKN060
     FM311400 14008KT P6SM VCSH SCT025 BKN050
      AMD NOT SKED TIL 310300=



000
FTUS42 TJSJ 301731
TAFJMZ
TAF
TJMZ 301731Z 3018/3118 11006KT P6SM VCSH BKN050
      TEMPO 3019/3022 VRB10G20KT 3SM TSRA BKN020CB OVC040
     FM302200 06004KT P6SM SCT025 BKN050 OVC100
      AMD NOT SKED=



000
FTUS42 TJSJ 301731
TAFJSJ
TAF
TJSJ 301731Z 3018/3118 06012KT P6SM VCSH SCT035 SCT080 BKN100
     FM301830 09008G15KT P6SM VCTS SCT025CB BKN040 OVC100
     FM302200 VRB06KT P6SM VCSH SCT030 SCT070 BKN090
     FM311400 06008KT P6SM VCSH SCT025 SCT070 BKN150=



000
FTUS42 TJSJ 301731
TAFJBQ
TAF
TJBQ 301731Z 3018/3118 01009KT P6SM VCSH SCT070
      TEMPO 3019/3022 VRB10G20KT 3SM TSRA BKN020CB OVC040
     FM302300 VRB05KT P6SM SCT025 BKN070
     FM311500 06008G15KT P6SM VCSH SCT025 BKN040 BKN090=



000
FTUS42 TJSJ 301731
TAFKPK
TAF
TKPK 301731Z 3018/3118 07010KT P6SM VCSH FEW023
     FM302300 08008KT P6SM SCT025 BKN070
     FM311330 09010KT P6SM VCTS SCT016CB BKN035=



000
FTUS42 TJSJ 301120
TAFJSJ
TAF
TJSJ 301120Z 3012/3112 VRB03KT P6SM FEW030 SCT070 BKN110
     FM301400 06008KT P6SM VCSH SCT025 SCT070 BKN150
     FM301630 09008G15KT P6SM VCTS SCT025CB BKN040 OVC100
     FM302200 VRB06KT P6SM VCSH SCT030 SCT070 BKN090=



000
FTUS42 TJSJ 301120
TAFISX
TAF
TISX 301120Z 3012/3112 05007KT P6SM VCSH SCT020 BKN040 OVC100
     FM301400 12010KT P6SM VCTS SCT022CB BKN040
     FM302300 09006KT P6SM VCSH SCT025 BKN070=



000
FTUS42 TJSJ 301120
TAFKPK
TAF
TKPK 301120Z 3012/3112 07008KT P6SM VCSH SCT018 SCT100
     FM301330 09010KT P6SM VCTS SCT016CB BKN035
     FM302300 08008KT P6SM SCT025 BKN070=



000
FTUS42 TJSJ 301120
TAFJMZ
TAF
TJMZ 301120Z 3012/3112 VRB06KT P6SM FEW040 BKN100
     FM301530 33008KT P6SM VCTS BKN030CB BKN050
      TEMPO 3017/3021 VRB10G20KT 3SM TSRA BKN020CB OVC040
     FM302200 06004KT P6SM SCT025 BKN050 OVC100
      AMD NOT SKED=



000
FTUS42 TJSJ 301120
TAFNCM
TAF
TNCM 301120Z 3012/3112 10007KT P6SM VCSH SCT018 SCT050
     FM301330 13010KT P6SM VCTS SCT018CB SCT035
     FM302300 11008KT P6SM SCT025 BKN070=



000
FTUS42 TJSJ 301120
TAFIST
TAF
TIST 301120Z 3012/3112 VRB06KT P6SM SCT025 BKN100
     FM301330 13012KT P6SM VCSH SCT025 BKN050
     FM302300 09008KT P6SM VCSH SCT025 BKN070=



000
FTUS42 TJSJ 301120
TAFIST
TAF
TIST 301120Z 3012/3112 VRB06KT P6SM SCT025 BKN100
     FM301330 13012KT P6SM VCSH SCT025 BKN050
     FM302300 09008KT P6SM VCSH SCT025 BKN070=



000
FTUS42 TJSJ 301120
TAFJBQ
TAF
TJBQ 301120Z 3012/3112 00000KT P6SM FEW030 SCT070 SCT120
     FM301500 06008G15KT P6SM VCSH SCT025 BKN040 BKN090
      TEMPO 3017/3021 VRB10G20KT 3SM TSRA BKN020CB OVC040
     FM302300 VRB05KT P6SM SCT025 BKN070=



000
FTUS42 TJSJ 301120
TAFISX
TAF
TISX 301120Z 3012/3112 05007KT P6SM VCSH SCT020 BKN040 OVC100
     FM301400 12010KT P6SM VCTS SCT022CB BKN040
     FM302300 09006KT P6SM VCSH SCT025 BKN070=



000
FTUS42 TJSJ 301120
TAFJPS
TAF
TJPS 301120Z 3012/3112 00000KT P6SM FEW025 BKN060
     FM301400 14008KT P6SM VCSH SCT025 BKN050
     FM301630 12010KT P6SM VCTS SCT025 BKN040CB
     FM302330 07005KT P6SM VCSH SCT030 BKN060
      AMD NOT SKED TIL 310300=



000
FTUS42 TJSJ 301120
TAFJSJ
TAF
TJSJ 301120Z 3012/3112 VRB03KT P6SM FEW030 SCT070 BKN110
     FM301400 06008KT P6SM VCSH SCT025 SCT070 BKN150
     FM301630 09008G15KT P6SM VCTS SCT025CB BKN040 OVC100
     FM302200 VRB06KT P6SM VCSH SCT030 SCT070 BKN090=



000
FTUS42 TJSJ 301120
TAFKPK
TAF
TKPK 301120Z 3012/3112 07008KT P6SM VCSH SCT018 SCT100
     FM301330 09010KT P6SM VCTS SCT016CB BKN035
     FM302300 08008KT P6SM SCT025 BKN070=



000
FTUS42 TJSJ 301120
TAFNCM
TAF
TNCM 301120Z 3012/3112 10007KT P6SM VCSH SCT018 SCT050
     FM301330 13010KT P6SM VCTS SCT018CB SCT035
     FM302300 11008KT P6SM SCT025 BKN070=



000
FTUS42 TJSJ 301120
TAFJMZ
TAF
TJMZ 301120Z 3012/3112 VRB06KT P6SM FEW040 BKN100
     FM301530 33008KT P6SM VCTS BKN030CB BKN050
      TEMPO 3017/3021 VRB10G20KT 3SM TSRA BKN020CB OVC040
     FM302200 06004KT P6SM SCT025 BKN050 OVC100
      AMD NOT SKED=



000
FTUS42 TJSJ 301120
TAFJBQ
TAF
TJBQ 301120Z 3012/3112 00000KT P6SM FEW030 SCT070 SCT120
     FM301500 06008G15KT P6SM VCSH SCT025 BKN040 BKN090
      TEMPO 3017/3021 VRB10G20KT 3SM TSRA BKN020CB OVC040
     FM302300 VRB05KT P6SM SCT025 BKN070=



000
FTUS42 TJSJ 301120
TAFJPS
TAF
TJPS 301120Z 3012/3112 00000KT P6SM FEW025 BKN060
     FM301400 14008KT P6SM VCSH SCT025 BKN050
     FM301630 12010KT P6SM VCTS SCT025 BKN040CB
     FM302330 07005KT P6SM VCSH SCT030 BKN060
      AMD NOT SKED TIL 310300=



000
FTUS42 TJSJ 300559
TAFJBQ
TAF
TJBQ 300559Z 3006/3106 VRB03KT P6SM FEW030 BKN120
     FM301500 06008KT P6SM VCSH SCT022 BKN040 BKN090
     FM302300 VRB05KT P6SM SCT025 BKN070
      AMD NOT SKED TIL 301100=



000
FTUS42 TJSJ 300559
TAFJBQ
TAF
TJBQ 300559Z 3006/3106 VRB03KT P6SM FEW030 BKN120
     FM301500 06008KT P6SM VCSH SCT022 BKN040 BKN090
     FM302300 VRB05KT P6SM SCT025 BKN070
      AMD NOT SKED TIL 301100=



000
FTUS42 TJSJ 300559
TAFJSJ
TAF
TJSJ 300559Z 3006/3106 VRB03KT P6SM FEW030 BKN070
     FM301400 05008G15KT P6SM VCTS SCT022CB BKN040
     FM302200 VRB06KT P6SM VCSH SCT030 SCT070 BKN090=



000
FTUS42 TJSJ 300559
TAFISX
TAF
TISX 300559Z 3006/3106 05007KT P6SM VCTS SCT020 BKN040CB OVC100
      TEMPO 3006/3007 5SM +RA BR BKN025 BKN040 OVC080
     FM301330 13010KT P6SM VCTS SCT022CB BKN040
     FM302300 09006KT P6SM VCSH SCT025 BKN070=



000
FTUS42 TJSJ 300559
TAFNCM
TAF
TNCM 300559Z 3006/3106 10007KT P6SM VCSH SCT018 BKN050
     FM301330 13010KT P6SM VCTS SCT018CB BKN035
     FM302300 11008KT P6SM SCT025 BKN070=



000
FTUS42 TJSJ 300559
TAFJMZ
TAF
TJMZ 300559Z 3006/3106 VRB06KT P6SM FEW040 BKN100
     FM301530 33008KT P6SM VCTS BKN030CB BKN050 OVC100
     FM302200 VRB04KT P6SM SCT025 BKN050
      AMD NOT SKED=



000
FTUS42 TJSJ 300559
TAFKPK
TAF
TKPK 300559Z 3006/3106 07008KT P6SM VCSH SCT018 SCT080
     FM301330 09010KT P6SM VCTS SCT016CB BKN035
     FM302300 08008KT P6SM SCT025 BKN070
      AMD NOT SKED TIL 301100=



000
FTUS42 TJSJ 300559
TAFIST
TAF
TIST 300559Z 3006/3106 10009KT P6SM VCTS SCT020 BKN040CB BKN100
     FM301330 13010KT P6SM VCTS SCT022CB BKN040
     FM302300 09008KT P6SM VCSH SCT025 BKN070=



000
FTUS42 TJSJ 300559
TAFJPS
TAF
TJPS 300559Z 3006/3106 00000KT P6SM VCSH SCT030 BKN060
     FM301400 16009KT P6SM VCTS SCT022CB BKN040
     FM302330 VRB04KT P6SM VCSH SCT030 BKN060
      AMD NOT SKED 3012/3103=



000
FTUS42 TJSJ 300559
TAFKPK
TAF
TKPK 300559Z 3006/3106 07008KT P6SM VCSH SCT018 SCT080
     FM301330 09010KT P6SM VCTS SCT016CB BKN035
     FM302300 08008KT P6SM SCT025 BKN070
      AMD NOT SKED TIL 301100=



000
FTUS42 TJSJ 300559
TAFJSJ
TAF
TJSJ 300559Z 3006/3106 VRB03KT P6SM FEW030 BKN070
     FM301400 05008G15KT P6SM VCTS SCT022CB BKN040
     FM302200 VRB06KT P6SM VCSH SCT030 SCT070 BKN090=



000
FTUS42 TJSJ 300559
TAFJPS
TAF
TJPS 300559Z 3006/3106 00000KT P6SM VCSH SCT030 BKN060
     FM301400 16009KT P6SM VCTS SCT022CB BKN040
     FM302330 VRB04KT P6SM VCSH SCT030 BKN060
      AMD NOT SKED 3012/3103=



000
FTUS42 TJSJ 300559
TAFISX
TAF
TISX 300559Z 3006/3106 05007KT P6SM VCTS SCT020 BKN040CB OVC100
      TEMPO 3006/3007 5SM +RA BR BKN025 BKN040 OVC080
     FM301330 13010KT P6SM VCTS SCT022CB BKN040
     FM302300 09006KT P6SM VCSH SCT025 BKN070=



000
FTUS42 TJSJ 300559
TAFIST
TAF
TIST 300559Z 3006/3106 10009KT P6SM VCTS SCT020 BKN040CB BKN100
     FM301330 13010KT P6SM VCTS SCT022CB BKN040
     FM302300 09008KT P6SM VCSH SCT025 BKN070=



000
FTUS42 TJSJ 300559
TAFJMZ
TAF
TJMZ 300559Z 3006/3106 VRB06KT P6SM FEW040 BKN100
     FM301530 33008KT P6SM VCTS BKN030CB BKN050 OVC100
     FM302200 VRB04KT P6SM SCT025 BKN050
      AMD NOT SKED=



000
FTUS42 TJSJ 300559
TAFNCM
TAF
TNCM 300559Z 3006/3106 10007KT P6SM VCSH SCT018 BKN050
     FM301330 13010KT P6SM VCTS SCT018CB BKN035
     FM302300 11008KT P6SM SCT025 BKN070=



000
FTUS42 TJSJ 300513 AAA
TAFISX
TAF AMD
TISX 300513Z 3005/3024 03004KT P6SM VCTS SCT020 BKN040CB BKN090
      TEMPO 3005/3006 VRB10G18KT 2SM -TSRA SCT017 BKN025CB BKN060
     FM301330 13010KT P6SM VCTS SCT022CB BKN040
     FM302300 09006KT P6SM SCT025 BKN070=



000
FTUS42 TJSJ 300513 AAA
TAFISX
TAF AMD
TISX 300513Z 3005/3024 03004KT P6SM VCTS SCT020 BKN040CB BKN090
      TEMPO 3005/3006 VRB10G18KT 2SM -TSRA SCT017 BKN025CB BKN060
     FM301330 13010KT P6SM VCTS SCT022CB BKN040
     FM302300 09006KT P6SM SCT025 BKN070=



000
FTUS42 TJSJ 292340
TAFJSJ
TAF
TJSJ 292340Z 3000/3024 VRB04KT P6SM VCSH SCT035 SCT080 BKN090
     FM300200 VRB03KT P6SM SCT040 BKN070
     FM301200 05008G15KT P6SM VCTS SCT022CB BKN040
     FM302200 VRB04KT P6SM SCT030=



000
FTUS42 TJSJ 292340
TAFNCM
TAF
TNCM 292340Z 3000/3024 10007KT P6SM SCT020 BKN080
     FM300300 VRB04KT P6SM VCSH SCT018 BKN090
     FM301330 14010KT P6SM VCTS SCT018CB BKN035
     FM302300 11008KT P6SM SCT025 BKN070=



000
FTUS42 TJSJ 292340
TAFJPS
TAF
TJPS 292340Z 3000/3024 VRB05KT P6SM VCSH SCT030 OVC050
     FM301400 16009KT P6SM VCTS SCT022CB BKN040
     FM302330 VRB04KT P6SM VCSH SCT030 BKN060
      AMD NOT SKED TIL 300300=



000
FTUS42 TJSJ 292340
TAFJMZ
TAF
TJMZ 292340Z 3000/3024 VRB06KT P6SM FEW040 OVC070
     FM301530 33008KT P6SM VCTS BKN030CB
     FM302200 VRB04KT P6SM SCT025 BKN050
      AMD NOT SKED=



000
FTUS42 TJSJ 292340
TAFJBQ
TAF
TJBQ 292340Z 3000/3024 09006KT P6SM FEW035 OVC080
     FM301500 06008KT P6SM VCSH SCT022 BKN040
     FM302300 VRB05KT P6SM SCT025 BKN070
      AMD NOT SKED 3002/3011=



000
FTUS42 TJSJ 292340
TAFKPK
TAF
TKPK 292340Z 3000/3024 08010KT P6SM SCT016 BKN080
     FM300300 VRB04KT P6SM VCSH SCT018 BKN090
     FM301330 09010KT P6SM VCTS SCT016CB BKN035
     FM302300 08008KT P6SM SCT025 BKN070
      AMD NOT SKED 3002/3011=



000
FTUS42 TJSJ 292340
TAFIST
TAF
TIST 292340Z 3000/3024 13005KT P6SM FEW021 OVC090
     FM300300 10004KT P6SM VCSH SCT020 BKN090
     FM301330 15010KT P6SM VCTS SCT022CB BKN040
     FM302300 09008KT P6SM SCT025 BKN070=



000
FTUS42 TJSJ 292340
TAFISX
TAF
TISX 292340Z 3000/3024 06004KT P6SM FEW030 OVC090
     FM300300 10004KT P6SM VCSH SCT020 BKN090
     FM301330 13010KT P6SM VCTS SCT022CB BKN040
     FM302300 09006KT P6SM SCT025 BKN070=



000
FTUS42 TJSJ 292340
TAFJSJ
TAF
TJSJ 292340Z 3000/3024 VRB04KT P6SM VCSH SCT035 SCT080 BKN090
     FM300200 VRB03KT P6SM SCT040 BKN070
     FM301200 05008G15KT P6SM VCTS SCT022CB BKN040
     FM302200 VRB04KT P6SM SCT030=



000
FTUS42 TJSJ 292340
TAFIST
TAF
TIST 292340Z 3000/3024 13005KT P6SM FEW021 OVC090
     FM300300 10004KT P6SM VCSH SCT020 BKN090
     FM301330 15010KT P6SM VCTS SCT022CB BKN040
     FM302300 09008KT P6SM SCT025 BKN070=



000
FTUS42 TJSJ 292340
TAFNCM
TAF
TNCM 292340Z 3000/3024 10007KT P6SM SCT020 BKN080
     FM300300 VRB04KT P6SM VCSH SCT018 BKN090
     FM301330 14010KT P6SM VCTS SCT018CB BKN035
     FM302300 11008KT P6SM SCT025 BKN070=



000
FTUS42 TJSJ 292340
TAFJMZ
TAF
TJMZ 292340Z 3000/3024 VRB06KT P6SM FEW040 OVC070
     FM301530 33008KT P6SM VCTS BKN030CB
     FM302200 VRB04KT P6SM SCT025 BKN050
      AMD NOT SKED=



000
FTUS42 TJSJ 292340
TAFKPK
TAF
TKPK 292340Z 3000/3024 08010KT P6SM SCT016 BKN080
     FM300300 VRB04KT P6SM VCSH SCT018 BKN090
     FM301330 09010KT P6SM VCTS SCT016CB BKN035
     FM302300 08008KT P6SM SCT025 BKN070
      AMD NOT SKED 3002/3011=



000
FTUS42 TJSJ 292340
TAFJBQ
TAF
TJBQ 292340Z 3000/3024 09006KT P6SM FEW035 OVC080
     FM301500 06008KT P6SM VCSH SCT022 BKN040
     FM302300 VRB05KT P6SM SCT025 BKN070
      AMD NOT SKED 3002/3011=



000
FTUS42 TJSJ 292340
TAFISX
TAF
TISX 292340Z 3000/3024 06004KT P6SM FEW030 OVC090
     FM300300 10004KT P6SM VCSH SCT020 BKN090
     FM301330 13010KT P6SM VCTS SCT022CB BKN040
     FM302300 09006KT P6SM SCT025 BKN070=



000
FTUS42 TJSJ 292340
TAFJPS
TAF
TJPS 292340Z 3000/3024 VRB05KT P6SM VCSH SCT030 OVC050
     FM301400 16009KT P6SM VCTS SCT022CB BKN040
     FM302330 VRB04KT P6SM VCSH SCT030 BKN060
      AMD NOT SKED TIL 300300=



000
FTUS42 TJSJ 292249 AAC
TAFJSJ
TAF AMD
TJSJ 292249Z 2923/3018 VRB06KT P6SM VCTS SCT030CB SCT050 BKN070
      TEMPO 2923/3001 VRB10G20KT 5SM TSRA BKN030CB
     FM300200 11005KT P6SM VCSH SCT025 BKN070
     FM301200 06007KT P6SM VCSH SCT020 SCT250=



000
FTUS42 TJSJ 291958 AAB
TAFJSJ
TAF AMD
TJSJ 291958Z 2920/3018 VRB04KT P6SM VCTS SCT030CB SCT080 OVC110
      TEMPO 2920/2922 VRB10G20KT -SHRA BKN030
     FM292200 11005KT P6SM VCTS SCT025CB BKN040
     FM300000 00000KT P6SM OVC100
     FM301200 06007KT P6SM VCSH SCT020 SCT250=



000
FTUS42 TJSJ 291958 AAB
TAFJSJ
TAF AMD
TJSJ 291958Z 2920/3018 VRB04KT P6SM VCTS SCT030CB SCT080 OVC110
      TEMPO 2920/2922 VRB10G20KT -SHRA BKN030
     FM292200 11005KT P6SM VCTS SCT025CB BKN040
     FM300000 00000KT P6SM OVC100
     FM301200 06007KT P6SM VCSH SCT020 SCT250=



000
FTUS42 TJSJ 291850 AAA
TAFJSJ
TAF AMD
TJSJ 291850Z 2919/3018 05004KT P6SM -TSRA VCSH SCT035CB SCT080
      OVC110
     FM292100 11005KT P6SM VCTS SCT025CB BKN040
     FM300000 00000KT P6SM OVC100
     FM301200 06007KT P6SM VCSH SCT020 SCT250=



000
FTUS42 TJSJ 291850 AAA
TAFJSJ
TAF AMD
TJSJ 291850Z 2919/3018 05004KT P6SM -TSRA VCSH SCT035CB SCT080
      OVC110
     FM292100 11005KT P6SM VCTS SCT025CB BKN040
     FM300000 00000KT P6SM OVC100
     FM301200 06007KT P6SM VCSH SCT020 SCT250=



000
FTUS42 TJSJ 291750
TAFJMZ
TAF
TJMZ 291750Z 2918/3018 28009KT P6SM VCTS SCT020 BKN040CB
      TEMPO 2918/2921 P6SM -RA BKN050
     FM292100 09006KT P6SM OVC100
      TEMPO 2921/2924 P6SM -RA OVC100
     FM300000 09006KT P6SM OVC050
     FM301200 07004KT P6SM BKN050
      AMD NOT SKED TIL 301500=



000
FTUS42 TJSJ 291750
TAFJSJ
TAF
TJSJ 291750Z 2918/3018 09012KT 2SM +TSRA BR VCSH FEW019 SCT040CB
      OVC080
     FM292100 11005KT P6SM VCTS SCT025CB BKN040
     FM300000 00000KT P6SM OVC100
     FM301200 06007KT P6SM VCSH SCT020 SCT250=



000
FTUS42 TJSJ 291750
TAFNCM
TAF
TNCM 291750Z 2918/3018 13010KT P6SM VCTS SCT022CB
     FM292200 12009KT P6SM VCTS SCT020CB BKN030 OVC100=



000
FTUS42 TJSJ 291750
TAFKPK
TAF
TKPK 291750Z 2918/3018 09010KT P6SM VCTS FEW022CB BKN050
      AMD NOT SKED 3002/3011=



000
FTUS42 TJSJ 291750
TAFJBQ
TAF
TJBQ 291750Z 2918/3018 VRB15G22KT P6SM VCTS BKN022CB OVC040
     FM300000 08003KT P6SM VCSH OVC050
     FM301500 06008KT P6SM VCSH SCT020 BKN250
      AMD NOT SKED 3002/3011=



000
FTUS42 TJSJ 291750
TAFJPS
TAF
TJPS 291750Z 2918/3018 17008G15KT P6SM FEW030 BKN060
     FM292200 09005KT P6SM VCTS SCT025CB BKN040 OVC100
     FM300000 03002KT P6SM OVC050
     FM301400 16009KT P6SM VCSH SCT020 BKN250
      AMD NOT SKED TIL 300300=



000
FTUS42 TJSJ 291750
TAFISX
TAF
TISX 291750Z 2918/3018 12009KT P6SM VCSH SCT020 SCT050
     FM292100 13006KT P6SM VCSH SCT020 OVC100
     FM300000 09004KT P6SM VCSH SCT020 OVC100
     FM301500 11009KT P6SM VCTS SCT020CB BKN250=



000
FTUS42 TJSJ 291750
TAFIST
TAF
TIST 291750Z 2918/3018 13010KT P6SM VCSH SCT013 SCT020
      TEMPO 2918/2920 BKN013
     FM292100 15007KT P6SM VCSH OVC100
     FM300300 10004KT P6SM VCSH SCT020 BKN250
     FM301200 10010KT P6SM VCSH SCT020 BKN100=



000
FTUS42 TJSJ 291721 AAB
TAFJSJ
TAF AMD
TJSJ 291721Z 2917/3012 09012KT 2SM +TSRA BR FEW019 SCT040CB OVC080
     FM291800 07014G20KT P6SM VCSH SCT022 BKN050
     FM292200 10006KT P6SM VCTS SCT025CB BKN040=



000
FTUS42 TJSJ 291721 AAB
TAFJSJ
TAF AMD
TJSJ 291721Z 2917/3012 09012KT 2SM +TSRA BR FEW019 SCT040CB OVC080
     FM291800 07014G20KT P6SM VCSH SCT022 BKN050
     FM292200 10006KT P6SM VCTS SCT025CB BKN040=



000
FTUS42 TJSJ 291718 AAA
TAFJSJ
TAF AMD
TJSJ 291718Z 2917/3012 10016G22KT P6SM -TSRA SCT009 SCT040CB BKN090
     FM291800 07014G20KT P6SM VCSH SCT022 BKN050
     FM292200 10006KT P6SM VCTS SCT025CB BKN040=



000
FTUS42 TJSJ 291139
TAFNCM
TAF
TNCM 291139Z 2912/3012 11008KT P6SM VCSH SCT018 BKN040
     FM291400 13012KT P6SM VCTS SCT018CB BKN035 BKN100
     FM292200 12009KT P6SM VCTS BKN020CB BKN030 OVC100=



000
FTUS42 TJSJ 291139
TAFJMZ
TAF
TJMZ 291139Z 2912/3012 VRB04KT P6SM SCT090
     FM291500 28007KT P6SM FEW030 SCT060
     FM291800 VRB10G18KT P6SM VCTS BKN030CB OVC100
      AMD NOT SKED TIL 291500=



000
FTUS42 TJSJ 291139
TAFJBQ
TAF
TJBQ 291139Z 2912/3012 09006KT P6SM SCT030 SCT080
     FM291400 10013KT P6SM SCT025 SCT120
     FM291800 VRB15G22KT P6SM VCTS BKN022CB OVC040
      AMD NOT SKED 3002/3011=



000
FTUS42 TJSJ 291139
TAFJSJ
TAF
TJSJ 291139Z 2912/3012 00000KT P6SM FEW040 SCT120
     FM291400 09012KT P6SM FEW025 SCT060 SCT120
     FM291800 07014G20KT P6SM VCSH SCT022 BKN050
     FM292200 10006KT P6SM VCTS SCT025CB BKN040=



000
FTUS42 TJSJ 291139
TAFJPS
TAF
TJPS 291139Z 2912/3012 05005KT P6SM FEW030 SCT100
     FM291500 14012KT P6SM FEW030 SCT060
     FM291830 17010G18KT P6SM VCSH SCT022 BKN050
     FM292200 09005KT P6SM VCTS SCT025CB BKN040 OVC100
      AMD NOT SKED TIL 300300=



000
FTUS42 TJSJ 291139
TAFIST
TAF
TIST 291139Z 2912/3012 12010KT P6SM FEW025 SCT100
     FM291300 13012KT P6SM VCSH SCT022 BKN040 BKN100
     FM291800 15013G21KT P6SM VCTS SCT018CB BKN030 BKN100=



000
FTUS42 TJSJ 291139
TAFISX
TAF
TISX 291139Z 2912/3012 10008KT P6SM FEW022 SCT050 SCT120
     FM291300 11013KT P6SM VCSH SCT022 BKN040 BKN100
     FM291800 13013G21KT P6SM VCTS SCT018CB BKN030 BKN100=



000
FTUS42 TJSJ 291139
TAFKPK
TAF
TKPK 291139Z 2912/3012 10010KT P6SM VCTS SCT015CB BKN035 OVC150
     FM291400 08012KT P6SM VCTS SCT018CB BKN040 OVC100
     FM291800 09013G21KT P6SM VCTS SCT018CB BKN030 OVC100
      AMD NOT SKED 3002/3011=



000
FTUS42 TJSJ 290550
TAFJBQ
TAF
TJBQ 290550Z 2906/3006 09006KT P6SM SCT030 SCT080
     FM291400 10013KT P6SM SCT025 SCT120
     FM291800 VRB15G22KT P6SM VCTS BKN022CB OVC040
      AMD NOT SKED TIL 291100=



000
FTUS42 TJSJ 290550
TAFJMZ
TAF
TJMZ 290550Z 2906/3006 VRB04KT P6SM SCT090
     FM291200 28007KT P6SM FEW030 SCT060
     FM291800 VRB10G18KT P6SM VCTS BKN030CB
      AMD NOT SKED TIL 291500=



000
FTUS42 TJSJ 290550
TAFISX
TAF
TISX 290550Z 2906/3006 10008KT P6SM FEW022 SCT050 SCT120
     FM291300 11013KT P6SM VCSH SCT022 BKN040 BKN100
     FM291800 13013G21KT P6SM VCTS SCT018CB BKN030 BKN100=



000
FTUS42 TJSJ 290550
TAFJPS
TAF
TJPS 290550Z 2906/3006 05005KT P6SM FEW030 SCT100
     FM291500 14012KT P6SM FEW030 SCT060
     FM291830 17010G18KT P6SM VCSH SCT022 BKN050
      AMD NOT SKED 2912/3003=



000
FTUS42 TJSJ 290550
TAFNCM
TAF
TNCM 290550Z 2906/3006 11008KT P6SM VCSH SCT018 BKN040
     FM291400 13012KT P6SM VCTS SCT018CB BKN035 BKN100
     FM292200 12009KT P6SM VCTS BKN020CB BKN030 OVC100=



000
FTUS42 TJSJ 290550
TAFIST
TAF
TIST 290550Z 2906/3006 12010KT P6SM FEW025 SCT100
     FM291300 13012KT P6SM VCSH SCT022 BKN040 BKN100
     FM291800 15013G21KT P6SM VCTS SCT018CB BKN030=



000
FTUS42 TJSJ 290550
TAFKPK
TAF
TKPK 290550Z 2906/3006 10010KT P6SM VCTS SCT015CB BKN035 OVC150
     FM291400 08012KT P6SM VCTS SCT018CB BKN040 OVC100
     FM291800 09013G21KT P6SM VCTS SCT018CB BKN030 OVC100
      AMD NOT SKED TIL 291100=



000
FTUS42 TJSJ 290550
TAFJSJ
TAF
TJSJ 290550Z 2906/3006 00000KT P6SM FEW040 SCT060 SCT100
     FM291300 09012KT P6SM FEW025 SCT060 SCT120
     FM291800 07014G20KT P6SM VCSH SCT022 BKN050=



000
FTUS42 TJSJ 282340
TAFJSJ
TAF
TJSJ 282340Z 2900/2924 15005KT P6SM FEW040 SCT060 SCT100
     FM291300 09012KT P6SM FEW025 SCT060 SCT120
     FM292200 07014G20KT P6SM VCSH SCT022 BKN050=



000
FTUS42 TJSJ 282340
TAFJBQ
TAF
TJBQ 282340Z 2900/2924 09006KT P6SM SCT022 SCT090
     FM291400 10013KT P6SM SCT025 SCT120
     FM291800 VRB15G22KT P6SM VCTS BKN022CB OVC040
      AMD NOT SKED 2902/2911=



000
FTUS42 TJSJ 282340
TAFISX
TAF
TISX 282340Z 2900/2924 10008KT P6SM FEW024 SCT080
     FM291300 11013KT P6SM VCSH SCT022 BKN040
     FM291800 13013G21KT P6SM VCTS SCT018CB BKN030=



000
FTUS42 TJSJ 282340
TAFKPK
TAF
TKPK 282340Z 2900/2924 08006KT P6SM VCSH FEW014
     FM290600 10012G18KT P6SM VCTS SCT015CB BKN035
     FM291400 08008KT P6SM VCSH SCT018 BKN040
      AMD NOT SKED 2902/2911=



000
FTUS42 TJSJ 282340
TAFIST
TAF
TIST 282340Z 2900/2924 12010KT P6SM FEW030 SCT100
     FM291300 13012KT P6SM VCSH SCT022 BKN040
     FM291800 15013G21KT P6SM VCTS SCT018CB BKN030=



000
FTUS42 TJSJ 282340
TAFJPS
TAF
TJPS 282340Z 2900/2924 16010KT P6SM FEW030 SCT080
     FM291500 14012KT P6SM FEW030 SCT060
     FM291830 17010G18KT P6SM VCSH SCT022 BKN050
      AMD NOT SKED TIL 290300=



000
FTUS42 TJSJ 282340
TAFJMZ
TAF
TJMZ 282340Z 2900/2924 VRB04KT P6SM SCT090
     FM291200 28007KT P6SM FEW030 SCT060
     FM291800 VRB10G18KT P6SM VCTS BKN030CB
      AMD NOT SKED TIL 291500=



000
FTUS42 TJSJ 282340
TAFNCM
TAF
TNCM 282340Z 2900/2924 11006KT P6SM VCSH FEW019 BKN040
     FM290600 11012G18KT P6SM VCTS SCT015CB BKN035
     FM291400 13008KT P6SM VCSH SCT018 BKN040=



000
FTUS42 TJSJ 282340
TAFKPK
TAF
TKPK 282340Z 2900/2924 08006KT P6SM VCSH FEW014
     FM290600 10012G18KT P6SM VCTS SCT015CB BKN035
     FM291400 08008KT P6SM VCSH SCT018 BKN040
      AMD NOT SKED 2902/2911=



000
FTUS42 TJSJ 282340
TAFJPS
TAF
TJPS 282340Z 2900/2924 16010KT P6SM FEW030 SCT080
     FM291500 14012KT P6SM FEW030 SCT060
     FM291830 17010G18KT P6SM VCSH SCT022 BKN050
      AMD NOT SKED TIL 290300=



000
FTUS42 TJSJ 282340
TAFJBQ
TAF
TJBQ 282340Z 2900/2924 09006KT P6SM SCT022 SCT090
     FM291400 10013KT P6SM SCT025 SCT120
     FM291800 VRB15G22KT P6SM VCTS BKN022CB OVC040
      AMD NOT SKED 2902/2911=



000
FTUS42 TJSJ 282340
TAFJMZ
TAF
TJMZ 282340Z 2900/2924 VRB04KT P6SM SCT090
     FM291200 28007KT P6SM FEW030 SCT060
     FM291800 VRB10G18KT P6SM VCTS BKN030CB
      AMD NOT SKED TIL 291500=



000
FTUS42 TJSJ 282340
TAFJSJ
TAF
TJSJ 282340Z 2900/2924 15005KT P6SM FEW040 SCT060 SCT100
     FM291300 09012KT P6SM FEW025 SCT060 SCT120
     FM292200 07014G20KT P6SM VCSH SCT022 BKN050=



000
FTUS42 TJSJ 282340
TAFISX
TAF
TISX 282340Z 2900/2924 10008KT P6SM FEW024 SCT080
     FM291300 11013KT P6SM VCSH SCT022 BKN040
     FM291800 13013G21KT P6SM VCTS SCT018CB BKN030=



000
FTUS42 TJSJ 282340
TAFIST
TAF
TIST 282340Z 2900/2924 12010KT P6SM FEW030 SCT100
     FM291300 13012KT P6SM VCSH SCT022 BKN040
     FM291800 15013G21KT P6SM VCTS SCT018CB BKN030=



000
FTUS42 TJSJ 282340
TAFNCM
TAF
TNCM 282340Z 2900/2924 11006KT P6SM VCSH FEW019 BKN040
     FM290600 11012G18KT P6SM VCTS SCT015CB BKN035
     FM291400 13008KT P6SM VCSH SCT018 BKN040=



000
FTUS42 TJSJ 281745
TAFJSJ
TAF
TJSJ 281745Z 2818/2918 08015KT P6SM VCSH SCT040 SCT060
     FM282330 12005KT P6SM SCT030 SCT050
     FM291300 09012KT P6SM FEW025 SCT060=



000
FTUS42 TJSJ 281745
TAFJMZ
TAF
TJMZ 281745Z 2818/2918 26009KT P6SM VCTS SCT025CB BKN035
     FM282330 VRB05KT P6SM SCT030
     FM291530 27010KT P6SM SCT025 BKN040
      AMD NOT SKED TIL 291500=



000
FTUS42 TJSJ 281745
TAFIST
TAF
TIST 281745Z 2818/2918 15009KT P6SM VCSH SCT020 SCT035
     FM282330 09007KT P6SM VCSH FEW030 SCT060
     FM291300 13012KT P6SM VCSH SCT025 SCT035=



000
FTUS42 TJSJ 281745
TAFJBQ
TAF
TJBQ 281745Z 2818/2918 07015G21KT P6SM VCTS SCT025CB BKN030 BKN045
      TEMPO 2818/2821 VRB15G21KT 3SM TS OVC030CB
     FM282330 VRB05KT P6SM SCT030 SCT060
     FM291400 10013KT P6SM SCT025
      AMD NOT SKED 2902/2911=



000
FTUS42 TJSJ 281745
TAFISX
TAF
TISX 281745Z 2818/2918 13009KT P6SM VCSH SCT025 SCT035 SCT070
     FM282330 VRB05KT P6SM VCSH FEW025 SCT035
     FM291300 11013KT P6SM SCT025=



000
FTUS42 TJSJ 281745
TAFJPS
TAF
TJPS 281745Z 2818/2918 16010G15KT P6SM FEW030
     FM282330 VRB05KT P6SM SCT030
     FM291500 14012KT P6SM FEW030 SCT060
      AMD NOT SKED TIL 290300=



000
FTUS42 TJSJ 281745
TAFNCM
TAF
TNCM 281745Z 2818/2918 12009KT P6SM VCSH FEW020 SCT030
     FM282330 12011KT P6SM VCSH SCT020 SCT035=



000
FTUS42 TJSJ 281745
TAFKPK
TAF
TKPK 281745Z 2818/2918 08012KT P6SM VCSH FEW024
     FM282130 08008KT P6SM VCSH SCT015 BKN040
      AMD NOT SKED 2902/2911=



000
FTUS42 TJSJ 281127
TAFISX
TAF
TISX 281127Z 2812/2912 03004KT P6SM VCSH SCT025 SCT040
     FM281430 12012KT P6SM FEW030 SCT050
     FM282330 VRB05KT P6SM SCT030=



000
FTUS42 TJSJ 281127
TAFIST
TAF
TIST 281127Z 2812/2912 09004KT P6SM VCSH SCT025 SCT040
     FM281430 13012KT P6SM FEW030 SCT050
     FM282330 09005KT P6SM SCT030=



000
FTUS42 TJSJ 281127
TAFKPK
TAF
TKPK 281127Z 2812/2912 10010KT P6SM VCSH SCT022
     FM282130 08008KT P6SM VCSH SCT015 BKN040
      AMD NOT SKED 2902/2911=



000
FTUS42 TJSJ 281127
TAFJBQ
TAF
TJBQ 281127Z 2812/2912 VRB04KT P6SM FEW025 SCT060
     FM281400 06013KT P6SM VCSH SCT025 SCT040
     FM281700 06013KT P6SM VCTS SCT025CB
     FM282330 VRB05KT P6SM SCT030
      AMD NOT SKED 2902/2911=



000
FTUS42 TJSJ 281127
TAFJMZ
TAF
TJMZ 281127Z 2812/2912 VRB05KT P6SM FEW025 FEW045
     FM281600 29010KT P6SM VCTS SCT025CB BKN040
     FM282330 VRB05KT P6SM SCT030
      AMD NOT SKED TIL 281600=



000
FTUS42 TJSJ 281127
TAFNCM
TAF
TNCM 281127Z 2812/2912 12010KT P6SM VCSH SCT022=



000
FTUS42 TJSJ 281127
TAFJSJ
TAF
TJSJ 281127Z 2812/2912 VRB03KT P6SM VCSH FEW022 SCT045
     FM281430 07012KT P6SM SCT030 SCT050
     FM282330 VRB05KT P6SM SCT030=



000
FTUS42 TJSJ 281127
TAFJPS
TAF
TJPS 281127Z 2812/2912 05003KT P6SM FEW028 FEW070
     FM281430 16012KT P6SM SCT030 SCT060
     FM282330 VRB05KT P6SM SCT030
      AMD NOT SKED TIL 290300=



000
FTUS42 TJSJ 281127
TAFJMZ
TAF
TJMZ 281127Z 2812/2912 VRB05KT P6SM FEW025 FEW045
     FM281600 29010KT P6SM VCTS SCT025CB BKN040
     FM282330 VRB05KT P6SM SCT030
      AMD NOT SKED TIL 281600=



000
FTUS42 TJSJ 281127
TAFIST
TAF
TIST 281127Z 2812/2912 09004KT P6SM VCSH SCT025 SCT040
     FM281430 13012KT P6SM FEW030 SCT050
     FM282330 09005KT P6SM SCT030=



000
FTUS42 TJSJ 281127
TAFISX
TAF
TISX 281127Z 2812/2912 03004KT P6SM VCSH SCT025 SCT040
     FM281430 12012KT P6SM FEW030 SCT050
     FM282330 VRB05KT P6SM SCT030=



000
FTUS42 TJSJ 281127
TAFJPS
TAF
TJPS 281127Z 2812/2912 05003KT P6SM FEW028 FEW070
     FM281430 16012KT P6SM SCT030 SCT060
     FM282330 VRB05KT P6SM SCT030
      AMD NOT SKED TIL 290300=



000
FTUS42 TJSJ 281127
TAFJSJ
TAF
TJSJ 281127Z 2812/2912 VRB03KT P6SM VCSH FEW022 SCT045
     FM281430 07012KT P6SM SCT030 SCT050
     FM282330 VRB05KT P6SM SCT030=



000
FTUS42 TJSJ 281127
TAFKPK
TAF
TKPK 281127Z 2812/2912 10010KT P6SM VCSH SCT022
     FM282130 08008KT P6SM VCSH SCT015 BKN040
      AMD NOT SKED 2902/2911=



000
FTUS42 TJSJ 281127
TAFNCM
TAF
TNCM 281127Z 2812/2912 12010KT P6SM VCSH SCT022=



000
FTUS42 TJSJ 281127
TAFJBQ
TAF
TJBQ 281127Z 2812/2912 VRB04KT P6SM FEW025 SCT060
     FM281400 06013KT P6SM VCSH SCT025 SCT040
     FM281700 06013KT P6SM VCTS SCT025CB
     FM282330 VRB05KT P6SM SCT030
      AMD NOT SKED 2902/2911=



000
FTUS42 TJSJ 280733 AAA
TAFNCM
TAF AMD
TNCM 280733Z 2808/2906 VRB06KT P6SM VCSH SCT018
      TEMPO 2808/2810 BKN017
     FM281330 11010KT P6SM SCT022=



000
FTUS42 TJSJ 280733 AAA
TAFNCM
TAF AMD
TNCM 280733Z 2808/2906 VRB06KT P6SM VCSH SCT018
      TEMPO 2808/2810 BKN017
     FM281330 11010KT P6SM SCT022=



000
FTUS42 TJSJ 280540
TAFNCM
TAF
TNCM 280540Z 2806/2906 VRB04KT P6SM VCSH SCT018
     FM281330 11010KT P6SM SCT022=



000
FTUS42 TJSJ 280540
TAFKPK
TAF
TKPK 280540Z 2806/2906 09011KT P6SM SCT022
      AMD NOT SKED TIL 281100=



000
FTUS42 TJSJ 280540
TAFIST
TAF
TIST 280540Z 2806/2906 09004KT P6SM VCSH SCT025 SCT040
     FM281430 13012KT P6SM FEW030 SCT050
     FM282330 09005KT P6SM SCT030=



000
FTUS42 TJSJ 280540
TAFJSJ
TAF
TJSJ 280540Z 2806/2906 VRB03KT P6SM VCSH SCT022 BKN050
     FM281430 07012KT P6SM SCT030 SCT050
     FM282330 VRB05KT P6SM SCT030=



000
FTUS42 TJSJ 280540
TAFJBQ
TAF
TJBQ 280540Z 2806/2906 VRB04KT P6SM FEW025 SCT060 SCT120
     FM281450 06013KT P6SM VCSH SCT025 SCT040
     FM282330 VRB05KT P6SM SCT030
      AMD NOT SKED TIL 281100=



000
FTUS42 TJSJ 280540
TAFJMZ
TAF
TJMZ 280540Z 2806/2906 00000KT P6SM FEW030 SCT060 SCT120
     FM281450 07005KT P6SM FEW025 SCT040
     FM281630 29010KT P6SM VCSH SCT025 BKN040
     FM282330 VRB05KT P6SM SCT030
      AMD NOT SKED TIL 281600=



000
FTUS42 TJSJ 280540
TAFJPS
TAF
TJPS 280540Z 2806/2906 05003KT P6SM FEW028 SCT070 SCT120
     FM281430 16012KT P6SM SCT030 SCT060
     FM282330 VRB05KT P6SM SCT030
      AMD NOT SKED 2811/2903=



000
FTUS42 TJSJ 280540
TAFISX
TAF
TISX 280540Z 2806/2906 03004KT P6SM VCSH SCT025 SCT040
     FM281430 12012KT P6SM FEW030 SCT050
     FM282330 VRB05KT P6SM SCT030=



000
FTUS42 TJSJ 280540
TAFJSJ
TAF
TJSJ 280540Z 2806/2906 VRB03KT P6SM VCSH SCT022 BKN050
     FM281430 07012KT P6SM SCT030 SCT050
     FM282330 VRB05KT P6SM SCT030=



000
FTUS42 TJSJ 280540
TAFIST
TAF
TIST 280540Z 2806/2906 09004KT P6SM VCSH SCT025 SCT040
     FM281430 13012KT P6SM FEW030 SCT050
     FM282330 09005KT P6SM SCT030=



000
FTUS42 TJSJ 280540
TAFJBQ
TAF
TJBQ 280540Z 2806/2906 VRB04KT P6SM FEW025 SCT060 SCT120
     FM281450 06013KT P6SM VCSH SCT025 SCT040
     FM282330 VRB05KT P6SM SCT030
      AMD NOT SKED TIL 281100=



000
FTUS42 TJSJ 280540
TAFJMZ
TAF
TJMZ 280540Z 2806/2906 00000KT P6SM FEW030 SCT060 SCT120
     FM281450 07005KT P6SM FEW025 SCT040
     FM281630 29010KT P6SM VCSH SCT025 BKN040
     FM282330 VRB05KT P6SM SCT030
      AMD NOT SKED TIL 281600=



000
FTUS42 TJSJ 280540
TAFISX
TAF
TISX 280540Z 2806/2906 03004KT P6SM VCSH SCT025 SCT040
     FM281430 12012KT P6SM FEW030 SCT050
     FM282330 VRB05KT P6SM SCT030=



000
FTUS42 TJSJ 280540
TAFNCM
TAF
TNCM 280540Z 2806/2906 VRB04KT P6SM VCSH SCT018
     FM281330 11010KT P6SM SCT022=



000
FTUS42 TJSJ 280540
TAFKPK
TAF
TKPK 280540Z 2806/2906 09011KT P6SM SCT022
      AMD NOT SKED TIL 281100=



000
FTUS42 TJSJ 280540
TAFJPS
TAF
TJPS 280540Z 2806/2906 05003KT P6SM FEW028 SCT070 SCT120
     FM281430 16012KT P6SM SCT030 SCT060
     FM282330 VRB05KT P6SM SCT030
      AMD NOT SKED 2811/2903=



000
FTUS42 TJSJ 272339
TAFNCM
TAF
TNCM 272339Z 2800/2824 VRB05KT P6SM FEW018 SCT035
     FM280330 09004KT P6SM VCSH SCT018
     FM281350 10012KT P6SM SCT022=



000
FTUS42 TJSJ 272339
TAFJPS
TAF
TJPS 272339Z 2800/2824 07006KT P6SM VCSH SCT025 BKN050 BKN120
     FM280300 05003KT P6SM FEW028 SCT070 SCT120
     FM281430 16012KT P6SM SCT030 SCT060
      AMD NOT SKED TIL 280300=



000
FTUS42 TJSJ 272339
TAFIST
TAF
TIST 272339Z 2800/2824 08005KT P6SM FEW025 SCT050
     FM280430 09004KT P6SM VCSH SCT025 SCT040
     FM281430 12012KT P6SM FEW030 SCT050=



000
FTUS42 TJSJ 272339
TAFKPK
TAF
TKPK 272339Z 2800/2824 VRB05KT P6SM FEW018 SCT035
     FM280330 07004KT P6SM VCSH SCT018
     FM281350 09011KT P6SM SCT022
      AMD NOT SKED 2802/2811=



000
FTUS42 TJSJ 272339
TAFJSJ
TAF
TJSJ 272339Z 2800/2824 05010KT P6SM SCT025 BKN100 BKN250
     FM280200 10004KT P6SM FEW025 SCT120 SCT250
     FM280600 VRB03KT P6SM VCSH SCT022 BKN050
     FM281430 07012KT P6SM SCT030 SCT050=



000
FTUS42 TJSJ 272339
TAFJBQ
TAF
TJBQ 272339Z 2800/2824 08012KT P6SM SCT025 BKN060 BKN120
     FM280200 10004KT P6SM FEW025 SCT060 SCT120
     FM281450 06013KT P6SM VCSH SCT025 SCT040
      AMD NOT SKED 2802/2811=



000
FTUS42 TJSJ 272339
TAFISX
TAF
TISX 272339Z 2800/2824 06006KT P6SM FEW025 SCT050
     FM280430 03004KT P6SM VCSH SCT025 SCT040
     FM281430 10012KT P6SM FEW030 SCT050=



000
FTUS42 TJSJ 272339
TAFJMZ
TAF
TJMZ 272339Z 2800/2824 07003KT P6SM VCSH FEW025 SCT050 BKN120
     FM280200 00000KT P6SM FEW030 SCT060 SCT120
     FM281450 07005KT P6SM FEW025 SCT040
     FM281630 29010KT P6SM VCSH SCT025 BKN040
      AMD NOT SKED TIL 281100=



    US Dept of Commerce
    National Oceanic and Atmospheric Administration
    National Weather Service
    1325 East West Highway
    Silver Spring, MD 20910
    Page Author: NWS Internet Services Team
Disclaimer
Information Quality
Credits
Glossary
Privacy Policy
Freedom of Information Act (FOIA)
About Us
Career Opportunities